sensor_id;sensor_type;location;lat;lon;timestamp;temperature;humidity
17346;DHT22;8790;53.590;10.002;2023-04-19T00:02:16;8.30;99.90
17346;DHT22;8790;53.590;10.002;2023-04-19T00:04:49;8.20;99.90
17346;DHT22;8790;53.590;10.002;2023-04-19T00:07:22;8.10;99.90
17346;DHT22;8790;53.590;10.002;2023-04-19T00:09:55;8.10;99.90
17346;DHT22;8790;53.590;10.002;2023-04-19T00:12:27;8.10;99.90
17346;DHT22;8790;53.590;10.002;2023-04-19T00:14:58;8.10;99.90
17346;DHT22;8790;53.590;10.002;2023-04-19T00:17:30;8.00;99.90
17346;DHT22;8790;53.590;10.002;2023-04-19T00:20:02;8.00;99.90
17346;DHT22;8790;53.590;10.002;2023-04-19T00:22:35;8.10;99.90
17346;DHT22;8790;53.590;10.002;2023-04-19T00:25:08;8.10;99.90
17346;DHT22;8790;53.590;10.002;2023-04-19T00:27:40;8.00;99.90
17346;DHT22;8790;53.590;10.002;2023-04-19T00:30:12;7.90;99.90
17346;DHT22;8790;53.590;10.002;2023-04-19T00:32:44;7.90;99.90
17346;DHT22;8790;53.590;10.002;2023-04-19T00:35:16;8.00;99.90
17346;DHT22;8790;53.590;10.002;2023-04-19T00:37:47;8.10;99.90
17346;DHT22;8790;53.590;10.002;2023-04-19T00:40:20;7.90;99.90
17346;DHT22;8790;53.590;10.002;2023-04-19T00:42:52;8.00;99.90
17346;DHT22;8790;53.590;10.002;2023-04-19T00:45:24;7.90;99.90
17346;DHT22;8790;53.590;10.002;2023-04-19T00:47:56;7.90;99.90
17346;DHT22;8790;53.590;10.002;2023-04-19T00:50:28;7.90;99.90
17346;DHT22;8790;53.590;10.002;2023-04-19T00:53:01;7.90;99.90
17346;DHT22;8790;53.590;10.002;2023-04-19T00:55:37;7.90;99.90
17346;DHT22;8790;53.590;10.002;2023-04-19T00:58:09;7.90;99.90
17346;DHT22;8790;53.590;10.002;2023-04-19T01:00:40;7.90;99.90
17346;DHT22;8790;53.590;10.002;2023-04-19T01:03:12;7.80;99.90
17346;DHT22;8790;53.590;10.002;2023-04-19T01:05:44;7.80;99.90
17346;DHT22;8790;53.590;10.002;2023-04-19T01:08:16;7.70;99.90
17346;DHT22;8790;53.590;10.002;2023-04-19T01:10:50;7.70;99.90
17346;DHT22;8790;53.590;10.002;2023-04-19T01:13:21;7.80;99.90
17346;DHT22;8790;53.590;10.002;2023-04-19T01:15:53;7.70;99.90
17346;DHT22;8790;53.590;10.002;2023-04-19T01:18:25;7.70;99.90
17346;DHT22;8790;53.590;10.002;2023-04-19T01:21:02;7.70;99.90
17346;DHT22;8790;53.590;10.002;2023-04-19T01:23:37;7.80;99.90
17346;DHT22;8790;53.590;10.002;2023-04-19T01:26:10;7.70;99.90
17346;DHT22;8790;53.590;10.002;2023-04-19T01:28:41;7.60;99.90
17346;DHT22;8790;53.590;10.002;2023-04-19T01:31:13;7.60;99.90
17346;DHT22;8790;53.590;10.002;2023-04-19T01:33:45;7.70;99.90
17346;DHT22;8790;53.590;10.002;2023-04-19T01:36:17;7.70;99.90
17346;DHT22;8790;53.590;10.002;2023-04-19T01:38:50;7.80;99.90
17346;DHT22;8790;53.590;10.002;2023-04-19T01:41:21;7.80;99.90
17346;DHT22;8790;53.590;10.002;2023-04-19T01:43:56;7.80;99.90
17346;DHT22;8790;53.590;10.002;2023-04-19T01:46:27;7.70;99.90
17346;DHT22;8790;53.590;10.002;2023-04-19T01:48:59;7.70;99.90
17346;DHT22;8790;53.590;10.002;2023-04-19T01:51:31;7.70;99.90
17346;DHT22;8790;53.590;10.002;2023-04-19T01:54:06;7.70;99.90
17346;DHT22;8790;53.590;10.002;2023-04-19T01:56:37;7.70;99.90
17346;DHT22;8790;53.590;10.002;2023-04-19T01:59:09;7.70;99.90
17346;DHT22;8790;53.590;10.002;2023-04-19T02:01:41;7.70;99.90
17346;DHT22;8790;53.590;10.002;2023-04-19T02:04:13;7.80;99.90
17346;DHT22;8790;53.590;10.002;2023-04-19T02:06:44;7.70;99.90
17346;DHT22;8790;53.590;10.002;2023-04-19T02:09:17;7.70;99.90
17346;DHT22;8790;53.590;10.002;2023-04-19T02:11:50;7.60;99.90
17346;DHT22;8790;53.590;10.002;2023-04-19T02:14:22;7.60;99.90
17346;DHT22;8790;53.590;10.002;2023-04-19T02:16:53;7.60;99.90
17346;DHT22;8790;53.590;10.002;2023-04-19T02:19:25;7.50;99.90
17346;DHT22;8790;53.590;10.002;2023-04-19T02:21:57;7.50;99.90
17346;DHT22;8790;53.590;10.002;2023-04-19T02:24:30;7.50;99.90
17346;DHT22;8790;53.590;10.002;2023-04-19T02:27:01;7.50;99.90
17346;DHT22;8790;53.590;10.002;2023-04-19T02:29:36;7.50;99.90
17346;DHT22;8790;53.590;10.002;2023-04-19T02:32:08;7.50;99.90
17346;DHT22;8790;53.590;10.002;2023-04-19T02:34:42;7.50;99.90
17346;DHT22;8790;53.590;10.002;2023-04-19T02:37:13;7.60;99.90
17346;DHT22;8790;53.590;10.002;2023-04-19T02:39:46;7.50;99.90
17346;DHT22;8790;53.590;10.002;2023-04-19T02:42:18;7.50;99.90
17346;DHT22;8790;53.590;10.002;2023-04-19T02:44:50;7.40;99.90
17346;DHT22;8790;53.590;10.002;2023-04-19T02:47:21;7.40;99.90
17346;DHT22;8790;53.590;10.002;2023-04-19T02:49:53;7.50;99.90
17346;DHT22;8790;53.590;10.002;2023-04-19T02:52:25;7.50;99.90
17346;DHT22;8790;53.590;10.002;2023-04-19T02:54:59;7.60;99.90
17346;DHT22;8790;53.590;10.002;2023-04-19T02:57:30;7.80;99.90
17346;DHT22;8790;53.590;10.002;2023-04-19T03:00:03;7.60;99.90
17346;DHT22;8790;53.590;10.002;2023-04-19T03:02:36;7.80;99.90
17346;DHT22;8790;53.590;10.002;2023-04-19T03:05:09;7.70;99.90
17346;DHT22;8790;53.590;10.002;2023-04-19T03:07:41;7.60;99.90
17346;DHT22;8790;53.590;10.002;2023-04-19T03:10:14;7.70;99.90
17346;DHT22;8790;53.590;10.002;2023-04-19T03:12:46;7.90;99.90
17346;DHT22;8790;53.590;10.002;2023-04-19T03:15:18;7.80;99.90
17346;DHT22;8790;53.590;10.002;2023-04-19T03:17:50;7.60;99.90
17346;DHT22;8790;53.590;10.002;2023-04-19T03:20:24;7.50;99.90
17346;DHT22;8790;53.590;10.002;2023-04-19T03:22:56;7.50;99.90
17346;DHT22;8790;53.590;10.002;2023-04-19T03:25:30;7.50;99.90
17346;DHT22;8790;53.590;10.002;2023-04-19T03:28:15;7.50;99.90
17346;DHT22;8790;53.590;10.002;2023-04-19T03:31:25;7.30;99.90
17346;DHT22;8790;53.590;10.002;2023-04-19T03:33:57;7.50;99.90
17346;DHT22;8790;53.590;10.002;2023-04-19T03:36:34;7.30;99.90
17346;DHT22;8790;53.590;10.002;2023-04-19T03:39:06;7.50;99.90
17346;DHT22;8790;53.590;10.002;2023-04-19T03:41:41;7.50;99.90
17346;DHT22;8790;53.590;10.002;2023-04-19T03:44:30;7.40;99.90
17346;DHT22;8790;53.590;10.002;2023-04-19T03:47:02;7.40;99.90
17346;DHT22;8790;53.590;10.002;2023-04-19T03:49:38;7.50;99.90
17346;DHT22;8790;53.590;10.002;2023-04-19T03:52:10;7.50;99.90
17346;DHT22;8790;53.590;10.002;2023-04-19T03:54:42;7.40;99.90
17346;DHT22;8790;53.590;10.002;2023-04-19T03:57:27;7.30;99.90
17346;DHT22;8790;53.590;10.002;2023-04-19T03:59:59;7.20;99.90
17346;DHT22;8790;53.590;10.002;2023-04-19T04:02:32;7.20;99.90
17346;DHT22;8790;53.590;10.002;2023-04-19T04:05:05;7.20;99.90
17346;DHT22;8790;53.590;10.002;2023-04-19T04:07:38;7.20;99.90
17346;DHT22;8790;53.590;10.002;2023-04-19T04:10:10;7.10;99.90
17346;DHT22;8790;53.590;10.002;2023-04-19T04:12:47;7.20;99.90
17346;DHT22;8790;53.590;10.002;2023-04-19T04:15:26;7.20;99.90
17346;DHT22;8790;53.590;10.002;2023-04-19T04:18:00;7.30;99.90
17346;DHT22;8790;53.590;10.002;2023-04-19T04:20:31;7.30;99.90
17346;DHT22;8790;53.590;10.002;2023-04-19T04:23:09;7.10;99.90
17346;DHT22;8790;53.590;10.002;2023-04-19T04:25:44;7.30;99.90
17346;DHT22;8790;53.590;10.002;2023-04-19T04:28:19;7.20;99.90
17346;DHT22;8790;53.590;10.002;2023-04-19T04:30:51;7.10;99.90
17346;DHT22;8790;53.590;10.002;2023-04-19T04:33:23;7.20;99.90
17346;DHT22;8790;53.590;10.002;2023-04-19T04:35:56;7.10;99.90
17346;DHT22;8790;53.590;10.002;2023-04-19T04:38:30;7.10;99.90
17346;DHT22;8790;53.590;10.002;2023-04-19T04:41:03;7.30;99.90
17346;DHT22;8790;53.590;10.002;2023-04-19T04:43:36;7.50;99.90
17346;DHT22;8790;53.590;10.002;2023-04-19T04:46:12;7.40;99.90
17346;DHT22;8790;53.590;10.002;2023-04-19T04:48:45;7.50;99.90
17346;DHT22;8790;53.590;10.002;2023-04-19T04:51:17;7.60;99.90
17346;DHT22;8790;53.590;10.002;2023-04-19T04:53:52;7.60;99.90
17346;DHT22;8790;53.590;10.002;2023-04-19T04:56:24;7.60;99.90
17346;DHT22;8790;53.590;10.002;2023-04-19T04:58:58;7.60;99.90
17346;DHT22;8790;53.590;10.002;2023-04-19T05:01:35;7.50;99.90
17346;DHT22;8790;53.590;10.002;2023-04-19T05:04:07;7.50;99.90
17346;DHT22;8790;53.590;10.002;2023-04-19T05:06:39;7.60;99.90
17346;DHT22;8790;53.590;10.002;2023-04-19T05:09:12;7.70;99.90
17346;DHT22;8790;53.590;10.002;2023-04-19T05:11:44;7.70;99.90
17346;DHT22;8790;53.590;10.002;2023-04-19T05:14:17;7.60;99.90
17346;DHT22;8790;53.590;10.002;2023-04-19T05:16:49;7.70;99.90
17346;DHT22;8790;53.590;10.002;2023-04-19T05:19:21;7.80;99.90
17346;DHT22;8790;53.590;10.002;2023-04-19T05:21:59;7.80;99.90
17346;DHT22;8790;53.590;10.002;2023-04-19T05:24:31;7.90;99.90
17346;DHT22;8790;53.590;10.002;2023-04-19T05:27:03;7.90;99.90
17346;DHT22;8790;53.590;10.002;2023-04-19T05:29:36;7.80;99.90
17346;DHT22;8790;53.590;10.002;2023-04-19T05:32:09;7.90;99.90
17346;DHT22;8790;53.590;10.002;2023-04-19T05:34:48;8.00;99.90
17346;DHT22;8790;53.590;10.002;2023-04-19T05:37:20;8.00;99.90
17346;DHT22;8790;53.590;10.002;2023-04-19T05:39:53;8.00;99.90
17346;DHT22;8790;53.590;10.002;2023-04-19T05:42:25;8.10;99.90
17346;DHT22;8790;53.590;10.002;2023-04-19T05:44:58;8.10;99.90
17346;DHT22;8790;53.590;10.002;2023-04-19T05:47:30;8.10;99.90
17346;DHT22;8790;53.590;10.002;2023-04-19T05:50:20;8.10;99.90
17346;DHT22;8790;53.590;10.002;2023-04-19T05:53:06;8.10;99.90
17346;DHT22;8790;53.590;10.002;2023-04-19T05:55:38;8.20;99.90
17346;DHT22;8790;53.590;10.002;2023-04-19T05:58:10;8.20;99.90
17346;DHT22;8790;53.590;10.002;2023-04-19T06:00:43;8.30;99.90
17346;DHT22;8790;53.590;10.002;2023-04-19T06:03:18;8.20;99.90
17346;DHT22;8790;53.590;10.002;2023-04-19T06:05:50;8.30;99.90
17346;DHT22;8790;53.590;10.002;2023-04-19T06:08:22;8.30;99.90
17346;DHT22;8790;53.590;10.002;2023-04-19T06:10:54;8.40;99.90
17346;DHT22;8790;53.590;10.002;2023-04-19T06:13:26;8.40;99.90
17346;DHT22;8790;53.590;10.002;2023-04-19T06:15:59;8.50;99.90
17346;DHT22;8790;53.590;10.002;2023-04-19T06:18:31;8.60;99.90
17346;DHT22;8790;53.590;10.002;2023-04-19T06:21:03;8.60;99.90
17346;DHT22;8790;53.590;10.002;2023-04-19T06:23:35;8.60;99.90
17346;DHT22;8790;53.590;10.002;2023-04-19T06:26:07;8.70;99.90
17346;DHT22;8790;53.590;10.002;2023-04-19T06:28:38;8.80;99.90
17346;DHT22;8790;53.590;10.002;2023-04-19T06:31:11;8.80;99.90
17346;DHT22;8790;53.590;10.002;2023-04-19T06:33:43;8.70;99.90
17346;DHT22;8790;53.590;10.002;2023-04-19T06:36:15;8.80;99.90
17346;DHT22;8790;53.590;10.002;2023-04-19T06:38:47;8.80;99.90
17346;DHT22;8790;53.590;10.002;2023-04-19T06:41:19;8.90;99.90
17346;DHT22;8790;53.590;10.002;2023-04-19T06:43:51;8.90;99.90
17346;DHT22;8790;53.590;10.002;2023-04-19T06:46:24;9.00;99.90
17346;DHT22;8790;53.590;10.002;2023-04-19T06:48:56;9.10;99.90
17346;DHT22;8790;53.590;10.002;2023-04-19T06:51:28;9.20;99.90
17346;DHT22;8790;53.590;10.002;2023-04-19T06:54:00;9.20;99.90
17346;DHT22;8790;53.590;10.002;2023-04-19T06:56:42;9.30;99.90
17346;DHT22;8790;53.590;10.002;2023-04-19T06:59:16;9.30;99.90
17346;DHT22;8790;53.590;10.002;2023-04-19T07:01:49;9.40;99.90
17346;DHT22;8790;53.590;10.002;2023-04-19T07:04:21;9.50;99.90
17346;DHT22;8790;53.590;10.002;2023-04-19T07:06:53;9.60;99.90
17346;DHT22;8790;53.590;10.002;2023-04-19T07:09:25;9.70;99.90
17346;DHT22;8790;53.590;10.002;2023-04-19T07:11:57;9.70;99.90
17346;DHT22;8790;53.590;10.002;2023-04-19T07:14:28;9.80;99.90
17346;DHT22;8790;53.590;10.002;2023-04-19T07:17:03;9.80;99.90
17346;DHT22;8790;53.590;10.002;2023-04-19T07:19:34;9.90;99.90
17346;DHT22;8790;53.590;10.002;2023-04-19T07:22:06;10.00;99.90
17346;DHT22;8790;53.590;10.002;2023-04-19T07:24:38;10.10;99.90
17346;DHT22;8790;53.590;10.002;2023-04-19T07:27:11;10.20;99.90
17346;DHT22;8790;53.590;10.002;2023-04-19T07:29:43;10.20;99.90
17346;DHT22;8790;53.590;10.002;2023-04-19T07:32:17;10.40;99.90
17346;DHT22;8790;53.590;10.002;2023-04-19T07:34:48;10.40;99.90
17346;DHT22;8790;53.590;10.002;2023-04-19T07:37:21;10.60;99.90
17346;DHT22;8790;53.590;10.002;2023-04-19T07:39:52;10.60;99.90
17346;DHT22;8790;53.590;10.002;2023-04-19T07:42:24;10.70;99.90
17346;DHT22;8790;53.590;10.002;2023-04-19T07:44:56;10.80;99.90
17346;DHT22;8790;53.590;10.002;2023-04-19T07:47:30;10.90;99.90
17346;DHT22;8790;53.590;10.002;2023-04-19T07:50:02;11.00;99.90
17346;DHT22;8790;53.590;10.002;2023-04-19T07:52:35;11.10;99.90
17346;DHT22;8790;53.590;10.002;2023-04-19T07:55:07;11.20;99.90
17346;DHT22;8790;53.590;10.002;2023-04-19T07:57:39;11.30;99.90
17346;DHT22;8790;53.590;10.002;2023-04-19T08:00:16;11.40;99.90
17346;DHT22;8790;53.590;10.002;2023-04-19T08:02:49;11.50;99.90
17346;DHT22;8790;53.590;10.002;2023-04-19T08:05:21;11.70;99.90
17346;DHT22;8790;53.590;10.002;2023-04-19T08:07:53;11.80;99.90
17346;DHT22;8790;53.590;10.002;2023-04-19T08:10:25;11.80;99.90
17346;DHT22;8790;53.590;10.002;2023-04-19T08:12:58;11.90;99.50
17346;DHT22;8790;53.590;10.002;2023-04-19T08:15:30;11.90;99.10
17346;DHT22;8790;53.590;10.002;2023-04-19T08:18:04;12.10;99.40
17346;DHT22;8790;53.590;10.002;2023-04-19T08:20:36;12.10;98.30
17346;DHT22;8790;53.590;10.002;2023-04-19T08:23:08;12.10;98.40
17346;DHT22;8790;53.590;10.002;2023-04-19T08:25:40;12.10;98.80
17346;DHT22;8790;53.590;10.002;2023-04-19T08:28:12;12.20;99.30
17346;DHT22;8790;53.590;10.002;2023-04-19T08:30:44;12.40;98.80
17346;DHT22;8790;53.590;10.002;2023-04-19T08:33:17;12.50;98.30
17346;DHT22;8790;53.590;10.002;2023-04-19T08:35:49;12.50;97.10
17346;DHT22;8790;53.590;10.002;2023-04-19T08:38:20;12.40;96.90
17346;DHT22;8790;53.590;10.002;2023-04-19T08:40:53;12.50;97.30
17346;DHT22;8790;53.590;10.002;2023-04-19T08:43:29;12.60;97.60
17346;DHT22;8790;53.590;10.002;2023-04-19T08:46:03;12.70;97.20
17346;DHT22;8790;53.590;10.002;2023-04-19T08:48:37;12.70;97.60
17346;DHT22;8790;53.590;10.002;2023-04-19T08:51:10;12.60;96.20
17346;DHT22;8790;53.590;10.002;2023-04-19T08:53:43;12.70;96.90
17346;DHT22;8790;53.590;10.002;2023-04-19T08:56:15;12.80;96.70
17346;DHT22;8790;53.590;10.002;2023-04-19T08:58:46;12.70;96.00
17346;DHT22;8790;53.590;10.002;2023-04-19T09:01:18;12.80;95.80
17346;DHT22;8790;53.590;10.002;2023-04-19T09:03:52;12.80;95.60
17346;DHT22;8790;53.590;10.002;2023-04-19T09:06:23;12.80;95.10
17346;DHT22;8790;53.590;10.002;2023-04-19T09:09:13;12.60;94.70
17346;DHT22;8790;53.590;10.002;2023-04-19T09:11:46;12.60;95.20
17346;DHT22;8790;53.590;10.002;2023-04-19T09:14:19;12.70;95.50
17346;DHT22;8790;53.590;10.002;2023-04-19T09:16:51;12.80;94.90
17346;DHT22;8790;53.590;10.002;2023-04-19T09:19:24;12.80;95.20
17346;DHT22;8790;53.590;10.002;2023-04-19T09:21:55;12.90;95.60
17346;DHT22;8790;53.590;10.002;2023-04-19T09:24:37;13.00;95.20
17346;DHT22;8790;53.590;10.002;2023-04-19T09:27:09;13.00;94.30
17346;DHT22;8790;53.590;10.002;2023-04-19T09:29:41;13.10;93.90
17346;DHT22;8790;53.590;10.002;2023-04-19T09:32:23;13.20;92.70
17346;DHT22;8790;53.590;10.002;2023-04-19T09:34:58;13.30;92.10
17346;DHT22;8790;53.590;10.002;2023-04-19T09:37:30;13.30;92.50
17346;DHT22;8790;53.590;10.002;2023-04-19T09:40:20;13.40;92.30
17346;DHT22;8790;53.590;10.002;2023-04-19T09:42:53;13.40;91.60
17346;DHT22;8790;53.590;10.002;2023-04-19T09:45:26;13.50;92.20
17346;DHT22;8790;53.590;10.002;2023-04-19T09:48:02;13.50;91.50
17346;DHT22;8790;53.590;10.002;2023-04-19T09:50:36;13.60;91.70
17346;DHT22;8790;53.590;10.002;2023-04-19T09:53:07;13.70;89.30
17346;DHT22;8790;53.590;10.002;2023-04-19T09:55:40;13.80;88.40
17346;DHT22;8790;53.590;10.002;2023-04-19T09:58:13;13.90;88.10
17346;DHT22;8790;53.590;10.002;2023-04-19T10:00:45;14.00;87.20
17346;DHT22;8790;53.590;10.002;2023-04-19T10:03:18;14.00;90.10
17346;DHT22;8790;53.590;10.002;2023-04-19T10:05:52;14.10;86.90
17346;DHT22;8790;53.590;10.002;2023-04-19T10:08:25;14.10;86.10
17346;DHT22;8790;53.590;10.002;2023-04-19T10:10:57;14.00;82.20
17346;DHT22;8790;53.590;10.002;2023-04-19T10:13:30;14.10;80.40
17346;DHT22;8790;53.590;10.002;2023-04-19T10:16:03;14.20;78.50
17346;DHT22;8790;53.590;10.002;2023-04-19T10:18:35;14.10;76.20
17346;DHT22;8790;53.590;10.002;2023-04-19T10:21:09;14.00;77.40
17346;DHT22;8790;53.590;10.002;2023-04-19T10:23:41;13.90;75.90
17346;DHT22;8790;53.590;10.002;2023-04-19T10:26:13;14.10;75.80
17346;DHT22;8790;53.590;10.002;2023-04-19T10:28:46;14.20;76.10
17346;DHT22;8790;53.590;10.002;2023-04-19T10:31:19;14.30;74.80
17346;DHT22;8790;53.590;10.002;2023-04-19T10:33:53;14.30;75.00
17346;DHT22;8790;53.590;10.002;2023-04-19T10:36:27;14.30;72.90
17346;DHT22;8790;53.590;10.002;2023-04-19T10:38:59;14.40;73.30
17346;DHT22;8790;53.590;10.002;2023-04-19T10:41:57;14.40;73.30
17346;DHT22;8790;53.590;10.002;2023-04-19T10:44:29;14.50;73.70
17346;DHT22;8790;53.590;10.002;2023-04-19T10:47:01;14.50;73.80
17346;DHT22;8790;53.590;10.002;2023-04-19T10:49:43;14.70;72.80
17346;DHT22;8790;53.590;10.002;2023-04-19T10:52:27;14.70;68.80
17346;DHT22;8790;53.590;10.002;2023-04-19T10:55:03;14.80;69.40
17346;DHT22;8790;53.590;10.002;2023-04-19T10:58:02;14.90;68.40
17346;DHT22;8790;53.590;10.002;2023-04-19T11:00:34;15.20;68.20
17346;DHT22;8790;53.590;10.002;2023-04-19T11:06:17;15.90;66.20
17346;DHT22;8790;53.590;10.002;2023-04-19T11:08:52;16.20;69.90
17346;DHT22;8790;53.590;10.002;2023-04-19T11:15:21;16.90;64.20
17346;DHT22;8790;53.590;10.002;2023-04-19T11:17:53;17.60;62.40
17346;DHT22;8790;53.590;10.002;2023-04-19T11:20:25;17.50;61.40
17346;DHT22;8790;53.590;10.002;2023-04-19T11:22:57;17.40;59.60
17346;DHT22;8790;53.590;10.002;2023-04-19T11:25:31;17.40;60.80
17346;DHT22;8790;53.590;10.002;2023-04-19T11:28:03;17.10;59.70
17346;DHT22;8790;53.590;10.002;2023-04-19T11:30:36;17.10;60.50
17346;DHT22;8790;53.590;10.002;2023-04-19T11:33:08;17.10;60.50
17346;DHT22;8790;53.590;10.002;2023-04-19T11:35:42;17.20;60.10
17346;DHT22;8790;53.590;10.002;2023-04-19T11:38:14;17.30;59.10
17346;DHT22;8790;53.590;10.002;2023-04-19T11:40:47;17.50;61.10
17346;DHT22;8790;53.590;10.002;2023-04-19T11:43:31;17.50;60.20
17346;DHT22;8790;53.590;10.002;2023-04-19T11:46:04;17.50;62.90
17346;DHT22;8790;53.590;10.002;2023-04-19T11:48:37;17.50;59.20
17346;DHT22;8790;53.590;10.002;2023-04-19T11:51:10;17.50;60.60
17346;DHT22;8790;53.590;10.002;2023-04-19T11:53:41;17.50;59.70
17346;DHT22;8790;53.590;10.002;2023-04-19T11:56:15;17.40;60.40
17346;DHT22;8790;53.590;10.002;2023-04-19T11:58:46;17.40;60.10
17346;DHT22;8790;53.590;10.002;2023-04-19T12:01:19;17.20;59.90
17346;DHT22;8790;53.590;10.002;2023-04-19T12:03:53;16.80;57.80
17346;DHT22;8790;53.590;10.002;2023-04-19T12:06:27;16.80;58.30
17346;DHT22;8790;53.590;10.002;2023-04-19T12:08:59;17.10;60.70
17346;DHT22;8790;53.590;10.002;2023-04-19T12:11:43;17.40;58.70
17346;DHT22;8790;53.590;10.002;2023-04-19T12:14:16;16.70;56.90
17346;DHT22;8790;53.590;10.002;2023-04-19T12:17:10;17.10;58.70
17346;DHT22;8790;53.590;10.002;2023-04-19T12:19:44;17.50;59.10
17346;DHT22;8790;53.590;10.002;2023-04-19T12:22:17;17.80;57.80
17346;DHT22;8790;53.590;10.002;2023-04-19T12:24:50;17.90;57.50
17346;DHT22;8790;53.590;10.002;2023-04-19T12:27:24;17.90;57.40
17346;DHT22;8790;53.590;10.002;2023-04-19T12:29:56;17.90;57.40
17346;DHT22;8790;53.590;10.002;2023-04-19T12:32:27;18.00;55.60
17346;DHT22;8790;53.590;10.002;2023-04-19T12:34:59;17.70;56.40
17346;DHT22;8790;53.590;10.002;2023-04-19T12:37:31;17.50;57.10
17346;DHT22;8790;53.590;10.002;2023-04-19T12:40:03;17.60;57.30
17346;DHT22;8790;53.590;10.002;2023-04-19T12:42:36;17.70;57.40
17346;DHT22;8790;53.590;10.002;2023-04-19T12:45:09;17.50;58.40
17346;DHT22;8790;53.590;10.002;2023-04-19T12:47:42;17.30;57.70
17346;DHT22;8790;53.590;10.002;2023-04-19T12:50:15;17.20;57.90
17346;DHT22;8790;53.590;10.002;2023-04-19T12:52:46;17.30;58.30
17346;DHT22;8790;53.590;10.002;2023-04-19T12:55:18;17.30;58.10
17346;DHT22;8790;53.590;10.002;2023-04-19T12:57:51;16.90;57.80
17346;DHT22;8790;53.590;10.002;2023-04-19T13:00:24;17.10;59.40
17346;DHT22;8790;53.590;10.002;2023-04-19T13:02:55;17.10;59.50
17346;DHT22;8790;53.590;10.002;2023-04-19T13:05:27;17.20;60.10
17346;DHT22;8790;53.590;10.002;2023-04-19T13:07:59;17.20;59.60
17346;DHT22;8790;53.590;10.002;2023-04-19T13:10:31;17.10;59.50
17346;DHT22;8790;53.590;10.002;2023-04-19T13:13:04;17.10;59.30
17346;DHT22;8790;53.590;10.002;2023-04-19T13:15:35;17.10;60.40
17346;DHT22;8790;53.590;10.002;2023-04-19T13:18:07;17.10;59.00
17346;DHT22;8790;53.590;10.002;2023-04-19T13:20:39;17.10;60.20
17346;DHT22;8790;53.590;10.002;2023-04-19T13:23:11;17.00;60.10
17346;DHT22;8790;53.590;10.002;2023-04-19T13:25:43;16.80;62.70
17346;DHT22;8790;53.590;10.002;2023-04-19T13:28:16;17.00;59.60
17346;DHT22;8790;53.590;10.002;2023-04-19T13:30:48;17.00;58.80
17346;DHT22;8790;53.590;10.002;2023-04-19T13:33:19;16.90;59.10
17346;DHT22;8790;53.590;10.002;2023-04-19T13:35:51;16.90;59.20
17346;DHT22;8790;53.590;10.002;2023-04-19T13:38:23;17.00;60.00
17346;DHT22;8790;53.590;10.002;2023-04-19T13:40:55;17.00;59.10
17346;DHT22;8790;53.590;10.002;2023-04-19T13:43:28;16.90;57.50
17346;DHT22;8790;53.590;10.002;2023-04-19T13:46:00;16.60;55.90
17346;DHT22;8790;53.590;10.002;2023-04-19T13:48:32;16.60;57.20
17346;DHT22;8790;53.590;10.002;2023-04-19T13:51:04;17.00;57.00
17346;DHT22;8790;53.590;10.002;2023-04-19T13:53:36;16.80;57.20
17346;DHT22;8790;53.590;10.002;2023-04-19T13:56:10;16.80;56.90
17346;DHT22;8790;53.590;10.002;2023-04-19T13:58:43;17.10;57.90
17346;DHT22;8790;53.590;10.002;2023-04-19T14:01:14;17.50;56.70
17346;DHT22;8790;53.590;10.002;2023-04-19T14:03:46;17.50;55.90
17346;DHT22;8790;53.590;10.002;2023-04-19T14:06:18;17.50;56.20
17346;DHT22;8790;53.590;10.002;2023-04-19T14:08:50;17.70;56.00
17346;DHT22;8790;53.590;10.002;2023-04-19T14:11:24;17.70;56.90
17346;DHT22;8790;53.590;10.002;2023-04-19T14:13:57;18.30;55.80
17346;DHT22;8790;53.590;10.002;2023-04-19T14:16:29;18.70;56.00
17346;DHT22;8790;53.590;10.002;2023-04-19T14:19:01;18.70;54.90
17346;DHT22;8790;53.590;10.002;2023-04-19T14:21:33;19.10;55.10
17346;DHT22;8790;53.590;10.002;2023-04-19T14:24:05;19.40;54.50
17346;DHT22;8790;53.590;10.002;2023-04-19T14:26:37;19.60;53.60
17346;DHT22;8790;53.590;10.002;2023-04-19T14:29:10;19.60;53.20
17346;DHT22;8790;53.590;10.002;2023-04-19T14:31:41;19.80;53.30
17346;DHT22;8790;53.590;10.002;2023-04-19T14:34:13;19.90;52.10
17346;DHT22;8790;53.590;10.002;2023-04-19T14:36:45;20.20;53.00
17346;DHT22;8790;53.590;10.002;2023-04-19T14:39:17;20.60;52.30
17346;DHT22;8790;53.590;10.002;2023-04-19T14:41:48;20.50;52.10
17346;DHT22;8790;53.590;10.002;2023-04-19T14:44:22;20.80;51.80
17346;DHT22;8790;53.590;10.002;2023-04-19T14:46:53;20.90;50.30
17346;DHT22;8790;53.590;10.002;2023-04-19T14:49:25;21.20;50.70
17346;DHT22;8790;53.590;10.002;2023-04-19T14:51:57;21.40;51.00
17346;DHT22;8790;53.590;10.002;2023-04-19T14:54:29;21.00;49.50
17346;DHT22;8790;53.590;10.002;2023-04-19T14:57:00;21.30;50.60
17346;DHT22;8790;53.590;10.002;2023-04-19T14:59:33;21.40;50.80
17346;DHT22;8790;53.590;10.002;2023-04-19T15:02:06;21.40;50.40
17346;DHT22;8790;53.590;10.002;2023-04-19T15:04:40;21.50;49.00
17346;DHT22;8790;53.590;10.002;2023-04-19T15:07:12;21.40;49.50
17346;DHT22;8790;53.590;10.002;2023-04-19T15:09:43;21.30;50.10
17346;DHT22;8790;53.590;10.002;2023-04-19T15:12:15;21.40;49.80
17346;DHT22;8790;53.590;10.002;2023-04-19T15:14:48;21.00;50.30
17346;DHT22;8790;53.590;10.002;2023-04-19T15:17:20;20.10;48.60
17346;DHT22;8790;53.590;10.002;2023-04-19T15:19:51;20.40;49.90
17346;DHT22;8790;53.590;10.002;2023-04-19T15:22:23;20.30;49.70
17346;DHT22;8790;53.590;10.002;2023-04-19T15:24:55;20.50;49.60
17346;DHT22;8790;53.590;10.002;2023-04-19T15:27:27;20.20;50.00
17346;DHT22;8790;53.590;10.002;2023-04-19T15:30:00;20.00;49.40
17346;DHT22;8790;53.590;10.002;2023-04-19T15:32:32;19.80;49.70
17346;DHT22;8790;53.590;10.002;2023-04-19T15:35:06;19.40;49.40
17346;DHT22;8790;53.590;10.002;2023-04-19T15:37:38;18.80;49.20
17346;DHT22;8790;53.590;10.002;2023-04-19T15:40:11;18.30;49.70
17346;DHT22;8790;53.590;10.002;2023-04-19T15:42:43;18.20;50.60
17346;DHT22;8790;53.590;10.002;2023-04-19T15:45:17;17.90;51.40
17346;DHT22;8790;53.590;10.002;2023-04-19T15:47:49;17.60;50.80
17346;DHT22;8790;53.590;10.002;2023-04-19T15:50:20;17.30;50.80
17346;DHT22;8790;53.590;10.002;2023-04-19T15:52:52;16.90;51.70
17346;DHT22;8790;53.590;10.002;2023-04-19T15:55:24;16.90;51.60
17346;DHT22;8790;53.590;10.002;2023-04-19T15:57:56;16.50;51.90
17346;DHT22;8790;53.590;10.002;2023-04-19T16:00:29;15.90;52.90
17346;DHT22;8790;53.590;10.002;2023-04-19T16:03:01;15.70;53.20
17346;DHT22;8790;53.590;10.002;2023-04-19T16:05:33;15.70;53.90
17346;DHT22;8790;53.590;10.002;2023-04-19T16:08:06;15.70;54.80
17346;DHT22;8790;53.590;10.002;2023-04-19T16:10:38;15.60;55.30
17346;DHT22;8790;53.590;10.002;2023-04-19T16:13:11;15.40;55.70
17346;DHT22;8790;53.590;10.002;2023-04-19T16:15:45;15.30;56.10
17346;DHT22;8790;53.590;10.002;2023-04-19T16:18:16;15.20;56.80
17346;DHT22;8790;53.590;10.002;2023-04-19T16:20:48;15.20;57.40
17346;DHT22;8790;53.590;10.002;2023-04-19T16:23:20;15.10;57.00